createdAt,value
2022-11-04T00:00:33.318Z,79.45
2022-11-04T00:03:02.396Z,79.92
2022-11-04T00:05:31.661Z,80.08
2022-11-04T00:08:19.293Z,79.85
2022-11-04T00:11:20.719Z,80.01
2022-11-04T00:13:49.949Z,80.14
2022-11-04T00:16:37.874Z,79.91
2022-11-04T00:19:06.872Z,80.11
2022-11-04T00:21:54.429Z,79.72
2022-11-04T00:24:42.042Z,80.08
2022-11-04T00:27:30.362Z,80.46
2022-11-04T00:30:00.174Z,80.60
2022-11-04T00:32:47.695Z,80.70
2022-11-04T00:35:17.023Z,80.45
2022-11-04T00:37:46.920Z,80.36
2022-11-04T00:40:18.613Z,80.30
2022-11-04T00:42:47.833Z,80.21
2022-11-04T00:45:16.971Z,80.52
2022-11-04T00:47:46.004Z,80.38
2022-11-04T00:50:15.180Z,80.18
2022-11-04T00:52:44.474Z,79.89
2022-11-04T00:55:13.810Z,79.80
2022-11-04T00:57:42.974Z,79.68
2022-11-04T01:00:17.037Z,80.00
2022-11-04T01:02:50.753Z,80.09
2022-11-04T01:05:23.321Z,80.50
2022-11-04T01:07:54.945Z,80.28
2022-11-04T01:10:26.459Z,80.44
2022-11-04T01:13:02.076Z,80.57
2022-11-04T01:15:33.051Z,80.28
2022-11-04T01:18:03.335Z,80.53
2022-11-04T01:20:35.024Z,80.46
2022-11-04T01:23:04.905Z,80.66
2022-11-04T01:25:34.507Z,81.07
2022-11-04T01:28:03.951Z,80.80
2022-11-04T01:30:33.460Z,80.36
2022-11-04T01:33:02.561Z,80.34
2022-11-04T01:35:33.792Z,80.05
2022-11-04T01:38:03.214Z,79.83
2022-11-04T01:40:37.388Z,79.96
2022-11-04T01:43:18.490Z,79.50
2022-11-04T01:46:00.575Z,79.01
2022-11-04T01:48:35.880Z,79.03
2022-11-04T01:51:06.326Z,79.17
2022-11-04T01:53:41.556Z,80.35
2022-11-04T01:56:15.431Z,80.82
2022-11-04T01:58:57.301Z,80.04
2022-11-04T02:01:27.131Z,80.04
2022-11-04T02:04:19.332Z,81.04
2022-11-04T02:06:50.710Z,80.67
2022-11-04T02:09:21.663Z,80.65
2022-11-04T02:12:09.284Z,80.71
2022-11-04T02:14:39.668Z,80.38
2022-11-04T02:17:21.072Z,80.17
2022-11-04T02:20:09.482Z,80.71
2022-11-04T02:23:04.645Z,80.12
2022-11-04T02:25:52.160Z,79.98
2022-11-04T02:28:58.595Z,80.37
2022-11-04T02:31:43.545Z,80.25
2022-11-04T02:34:28.213Z,79.96
2022-11-04T02:37:22.113Z,79.49
2022-11-04T02:40:22.030Z,79.38
2022-11-04T02:43:03.746Z,78.78
2022-11-04T02:46:01.288Z,78.12
2022-11-04T02:48:42.936Z,77.90
2022-11-04T02:51:34.090Z,77.94
2022-11-04T02:54:17.424Z,77.58
2022-11-04T02:56:52.210Z,76.60
2022-11-04T02:59:28.956Z,77.13
2022-11-04T03:02:03.842Z,77.11
2022-11-04T03:04:40.163Z,76.83
2022-11-04T03:07:14.554Z,76.52
2022-11-04T03:09:51.421Z,77.18
2022-11-04T03:12:27.340Z,77.15
2022-11-04T03:15:06.489Z,77.18
2022-11-04T03:17:48.760Z,77.12
2022-11-04T03:20:27.257Z,77.48
2022-11-04T03:23:00.803Z,77.63
2022-11-04T03:25:39.884Z,76.78
2022-11-04T03:28:23.518Z,76.75
2022-11-04T03:30:58.048Z,76.05
2022-11-04T03:33:57.666Z,75.28
2022-11-04T03:36:29.525Z,74.68
2022-11-04T03:38:59.439Z,73.92
2022-11-04T03:41:57.733Z,73.48
2022-11-04T03:44:27.973Z,73.59
2022-11-04T03:46:57.748Z,73.13
2022-11-04T03:49:28.477Z,73.53
2022-11-04T03:52:00.062Z,72.88
2022-11-04T03:54:34.055Z,72.18
2022-11-04T03:57:22.164Z,71.57
2022-11-04T04:00:11.800Z,71.20
2022-11-04T04:02:50.524Z,71.87
2022-11-04T04:05:31.508Z,72.58
2022-11-04T04:08:10.629Z,72.18
2022-11-04T04:11:10.560Z,72.26
2022-11-04T04:14:05.500Z,71.88
2022-11-04T04:16:37.606Z,72.75
2022-11-04T04:19:13.492Z,72.27
2022-11-04T04:22:02.316Z,72.53
2022-11-04T04:24:56.182Z,71.22
2022-11-04T04:27:35.045Z,72.24
2022-11-04T04:30:10.186Z,72.75
2022-11-04T04:32:54.655Z,72.70
2022-11-04T04:35:45.460Z,72.54
2022-11-04T04:38:46.838Z,71.94
2022-11-04T04:41:42.775Z,71.62
2022-11-04T04:44:45.344Z,69.82
2022-11-04T04:47:22.795Z,69.57
2022-11-04T04:49:54.173Z,69.18
2022-11-04T04:52:26.024Z,69.33
2022-11-04T04:54:55.745Z,70.17
2022-11-04T04:57:25.479Z,69.84
2022-11-04T04:59:55.186Z,69.43
2022-11-04T05:02:25.047Z,69.54
2022-11-04T05:04:54.488Z,69.95
2022-11-04T05:07:24.689Z,70.10
2022-11-04T05:09:54.353Z,70.12
2022-11-04T05:12:24.001Z,69.65
2022-11-04T05:14:53.356Z,69.61
2022-11-04T05:17:22.637Z,69.05
2022-11-04T05:19:52.401Z,68.79
2022-11-04T05:22:22.279Z,68.27
2022-11-04T05:24:53.302Z,67.85
2022-11-04T05:27:22.865Z,66.87
2022-11-04T05:29:52.767Z,66.67
2022-11-04T05:32:22.833Z,66.12
2022-11-04T05:34:52.118Z,66.20
2022-11-04T05:37:21.987Z,65.01
2022-11-04T05:39:56.849Z,65.89
2022-11-04T05:42:26.697Z,65.69
2022-11-04T05:44:56.813Z,65.99
2022-11-04T05:47:27.558Z,65.50
2022-11-04T05:49:57.636Z,65.06
2022-11-04T05:52:27.297Z,64.68
2022-11-04T05:54:57.036Z,63.34
2022-11-04T05:57:26.633Z,61.95
2022-11-04T05:59:56.831Z,61.94
2022-11-04T06:02:26.685Z,61.17
2022-11-04T06:04:56.395Z,60.72
2022-11-04T06:07:26.330Z,60.53
2022-11-04T06:09:55.956Z,61.13
2022-11-04T06:12:25.760Z,61.85
2022-11-04T06:14:55.428Z,60.23
2022-11-04T06:17:25.546Z,58.73
2022-11-04T06:19:54.896Z,58.21
2022-11-04T06:22:24.278Z,58.26
2022-11-04T06:24:54.036Z,58.27
2022-11-04T06:27:23.563Z,57.87
2022-11-04T06:29:55.286Z,57.66
2022-11-04T06:32:36.688Z,56.42
2022-11-04T06:35:13.512Z,55.00
2022-11-04T06:37:43.077Z,55.06
2022-11-04T06:40:12.786Z,54.08
2022-11-04T06:42:44.078Z,53.20
2022-11-04T06:45:14.441Z,53.26
2022-11-04T06:47:44.773Z,54.45
2022-11-04T06:50:15.973Z,54.12
2022-11-04T06:52:46.379Z,54.44
2022-11-04T06:55:15.880Z,52.49
2022-11-04T06:57:45.389Z,52.83
2022-11-04T07:00:15.310Z,52.01
2022-11-04T07:02:44.847Z,52.73
2022-11-04T07:05:16.420Z,53.02
2022-11-04T07:07:46.079Z,52.20
2022-11-04T07:10:15.291Z,49.70
2022-11-04T07:12:44.769Z,49.87
2022-11-04T07:15:14.468Z,51.15
2022-11-04T07:17:45.433Z,51.33
2022-11-04T07:20:14.647Z,50.15
2022-11-04T07:22:44.307Z,51.10
2022-11-04T07:25:13.432Z,50.29
2022-11-04T07:27:43.290Z,50.03
2022-11-04T07:30:13.381Z,49.59
2022-11-04T07:32:42.673Z,50.11
2022-11-04T07:35:11.843Z,49.96
2022-11-04T07:37:41.344Z,49.48
2022-11-04T07:40:11.575Z,49.60
2022-11-04T07:42:40.802Z,49.80
2022-11-04T07:45:11.459Z,49.78
2022-11-04T07:47:40.917Z,48.24
2022-11-04T07:50:11.352Z,48.49
2022-11-04T07:52:41.376Z,48.50
2022-11-04T07:55:11.999Z,47.37
2022-11-04T07:57:42.117Z,47.75
2022-11-04T08:00:12.795Z,48.09
2022-11-04T08:02:43.233Z,47.12
2022-11-04T08:05:13.053Z,45.95
2022-11-04T08:07:42.273Z,44.00
2022-11-04T08:10:12.119Z,44.28
2022-11-04T08:12:41.231Z,44.50
2022-11-04T08:15:10.783Z,44.21
2022-11-04T08:17:40.010Z,43.42
2022-11-04T08:20:10.908Z,43.80
2022-11-04T08:22:41.184Z,43.79
2022-11-04T08:25:14.436Z,43.87
2022-11-04T08:27:44.271Z,44.88
2022-11-04T08:30:14.434Z,44.24
2022-11-04T08:32:45.343Z,43.71
2022-11-04T08:35:15.219Z,43.70
2022-11-04T08:37:44.622Z,44.43
2022-11-04T08:40:13.659Z,44.60
2022-11-04T08:42:42.989Z,44.05
2022-11-04T08:45:12.245Z,45.16
2022-11-04T08:47:41.553Z,45.19
2022-11-04T08:50:10.876Z,44.28
2022-11-04T08:52:41.328Z,45.06
2022-11-04T08:55:11.931Z,44.86
2022-11-04T08:57:41.157Z,44.93
2022-11-04T09:00:10.916Z,45.24
2022-11-04T09:02:41.561Z,46.29
2022-11-04T09:05:12.222Z,45.18
2022-11-04T09:07:42.152Z,46.42
2022-11-04T09:10:12.661Z,46.84
2022-11-04T09:12:44.367Z,46.99
2022-11-04T09:15:14.438Z,47.47
2022-11-04T09:17:45.506Z,47.16
2022-11-04T09:20:18.178Z,47.68
2022-11-04T09:22:51.471Z,47.61
2022-11-04T09:25:21.636Z,47.90
2022-11-04T09:27:50.739Z,46.60
2022-11-04T09:30:20.301Z,46.58
2022-11-04T09:32:53.001Z,47.73
2022-11-04T09:35:23.939Z,46.78
2022-11-04T09:37:54.123Z,46.47
2022-11-04T09:40:26.558Z,46.87
2022-11-04T09:43:34.993Z,45.99
2022-11-04T09:46:05.220Z,45.03
2022-11-04T09:48:48.980Z,46.41
2022-11-04T09:51:47.943Z,46.55
2022-11-04T09:54:28.447Z,48.10
2022-11-04T09:57:02.099Z,48.20
2022-11-04T09:59:38.829Z,46.01
2022-11-04T10:02:40.312Z,45.33
2022-11-04T10:05:26.526Z,45.72
2022-11-04T10:08:26.664Z,46.69
2022-11-04T10:11:06.501Z,46.74
2022-11-04T10:14:23.083Z,45.09
2022-11-04T10:17:01.174Z,44.13
2022-11-04T10:19:56.740Z,44.44
2022-11-04T10:22:34.490Z,44.34
2022-11-04T10:25:23.140Z,44.55
2022-11-04T10:35:01.931Z,45.13
2022-11-04T10:38:12.339Z,45.03
2022-11-04T10:41:18.025Z,45.93
2022-11-04T10:50:57.933Z,46.20
2022-11-04T10:57:08.370Z,46.40
2022-11-04T10:59:56.993Z,47.34
2022-11-04T11:02:39.260Z,47.45
2022-11-04T11:05:23.734Z,47.75
2022-11-04T11:07:56.292Z,47.87
2022-11-04T11:10:36.153Z,48.06
2022-11-04T11:13:11.417Z,48.44
2022-11-04T11:15:43.413Z,48.54
2022-11-04T11:18:18.709Z,48.91
2022-11-04T11:20:53.062Z,48.63
2022-11-04T11:23:42.137Z,49.07
2022-11-04T11:26:20.418Z,49.85
2022-11-04T11:28:59.351Z,52.31
2022-11-04T11:31:39.144Z,51.57
2022-11-04T11:34:23.565Z,51.92
2022-11-04T11:36:56.626Z,52.15
2022-11-04T11:39:30.100Z,51.99
2022-11-04T11:42:05.443Z,52.25
2022-11-04T11:44:50.321Z,52.28
2022-11-04T11:47:31.567Z,53.26
2022-11-04T11:50:34.413Z,54.13
2022-11-04T11:53:16.369Z,54.90
2022-11-04T11:55:55.519Z,55.78
2022-11-04T12:01:43.687Z,58.08
2022-11-04T12:10:29.970Z,58.37
2022-11-04T12:13:23.623Z,59.42
2022-11-04T12:15:59.841Z,59.13
2022-11-04T12:18:44.111Z,60.25
2022-11-04T12:21:22.345Z,60.00
2022-11-04T12:24:03.310Z,60.60
2022-11-04T12:26:47.649Z,60.68
2022-11-04T12:29:30.801Z,59.72
2022-11-04T12:32:06.155Z,59.59
2022-11-04T12:34:56.403Z,58.90
2022-11-04T12:37:50.197Z,59.09
2022-11-04T12:40:19.414Z,60.20
2022-11-04T12:43:18.326Z,60.88
2022-11-04T12:46:02.735Z,61.41
2022-11-04T12:48:57.433Z,62.45
2022-11-04T12:52:03.124Z,62.06
2022-11-04T12:54:32.664Z,62.47
2022-11-04T12:57:22.849Z,62.58
2022-11-04T13:00:03.549Z,62.01
2022-11-04T13:02:47.908Z,63.45
2022-11-04T13:05:45.241Z,63.85
2022-11-04T13:08:30.556Z,63.87
2022-11-04T13:11:26.049Z,64.03
2022-11-04T13:14:09.882Z,62.39
2022-11-04T13:16:46.162Z,63.82
2022-11-04T13:19:42.853Z,63.38
2022-11-04T13:22:19.782Z,63.71
2022-11-04T13:25:12.465Z,63.95
2022-11-04T13:27:49.579Z,62.87
2022-11-04T13:30:25.095Z,64.33
2022-11-04T13:33:13.236Z,63.14
2022-11-04T13:35:59.435Z,63.65
2022-11-04T13:38:43.693Z,64.03
2022-11-04T13:41:27.172Z,63.79
2022-11-04T13:44:02.795Z,63.44
2022-11-04T13:46:36.409Z,64.91
2022-11-04T13:49:08.717Z,64.82
2022-11-04T13:51:45.606Z,65.17
2022-11-04T13:54:23.929Z,65.18
2022-11-04T13:57:06.830Z,63.85
2022-11-04T13:59:35.738Z,63.47
2022-11-04T14:02:14.413Z,63.11
2022-11-04T14:04:45.199Z,63.67
2022-11-04T14:07:20.250Z,63.50
2022-11-04T14:09:55.561Z,63.04
2022-11-04T14:12:34.169Z,63.82
2022-11-04T14:15:12.868Z,63.08
2022-11-04T14:17:45.336Z,65.62
2022-11-04T14:20:26.739Z,65.19
2022-11-04T14:23:02.373Z,64.99
2022-11-04T14:25:33.992Z,65.70
2022-11-04T14:28:04.903Z,65.16
2022-11-04T14:30:34.015Z,65.56
2022-11-04T14:33:08.193Z,66.90
2022-11-04T14:35:38.139Z,67.27
2022-11-04T14:38:29.667Z,67.09
2022-11-04T14:41:16.825Z,66.75
2022-11-04T14:43:48.480Z,67.37
2022-11-04T14:46:24.331Z,67.42
2022-11-04T14:48:57.066Z,67.01
2022-11-04T14:51:41.033Z,66.18
2022-11-04T14:54:14.281Z,66.93
2022-11-04T14:56:43.542Z,66.99
2022-11-04T14:59:24.664Z,66.16
2022-11-04T15:01:54.875Z,66.37
2022-11-04T15:04:33.422Z,66.54
2022-11-04T15:07:05.552Z,67.12
2022-11-04T15:09:41.379Z,67.21
2022-11-04T15:12:38.636Z,66.24
2022-11-04T15:15:34.854Z,66.45
2022-11-04T15:18:17.028Z,65.97
2022-11-04T15:21:02.352Z,66.85
2022-11-04T15:23:36.267Z,66.60
2022-11-04T15:26:08.756Z,66.98
2022-11-04T15:28:43.153Z,66.89
2022-11-04T15:31:13.209Z,67.06
2022-11-04T15:33:49.146Z,67.83
2022-11-04T15:36:26.801Z,68.13
2022-11-04T15:39:02.433Z,68.32
2022-11-04T15:41:51.947Z,67.63
2022-11-04T15:44:30.428Z,68.16
2022-11-04T15:47:10.229Z,68.30
2022-11-04T15:49:43.074Z,68.14
2022-11-04T15:52:23.319Z,68.24
2022-11-04T15:54:55.838Z,68.70
2022-11-04T15:57:36.291Z,68.38
2022-11-04T16:00:23.405Z,68.80
2022-11-04T16:02:59.516Z,69.08
2022-11-04T16:05:35.231Z,68.87
2022-11-04T16:08:24.191Z,69.14
2022-11-04T16:11:14.165Z,69.41
2022-11-04T16:13:45.491Z,69.63
2022-11-04T16:16:28.413Z,69.61
2022-11-04T16:19:00.015Z,70.11
2022-11-04T16:21:33.131Z,69.68
2022-11-04T16:24:18.245Z,70.28
2022-11-04T16:26:49.760Z,70.48
2022-11-04T16:29:29.376Z,70.82
2022-11-04T16:32:21.103Z,70.54
2022-11-04T16:34:56.053Z,70.99
2022-11-04T16:37:27.087Z,71.27
2022-11-04T16:39:56.746Z,71.37
2022-11-04T16:42:26.467Z,71.29
2022-11-04T16:45:02.903Z,71.76
2022-11-04T16:47:35.493Z,71.92
2022-11-04T16:50:11.202Z,72.09
2022-11-04T16:52:44.186Z,72.12
2022-11-04T16:55:16.360Z,72.55
2022-11-04T16:57:50.956Z,72.62
2022-11-04T17:00:27.913Z,72.83
2022-11-04T17:02:57.602Z,72.86
2022-11-04T17:05:27.336Z,73.07
2022-11-04T17:08:03.273Z,72.86
2022-11-04T17:10:37.389Z,73.36
2022-11-04T17:13:07.108Z,73.37
2022-11-04T17:15:36.251Z,73.61
2022-11-04T17:18:05.798Z,73.84
2022-11-04T17:20:35.273Z,73.75
2022-11-04T17:23:05.329Z,73.98
2022-11-04T17:25:34.649Z,74.20
2022-11-04T17:28:04.321Z,74.17
2022-11-04T17:30:34.044Z,74.14
2022-11-04T17:33:07.720Z,74.41
2022-11-04T17:35:39.822Z,74.18
2022-11-04T17:38:09.261Z,73.89
2022-11-04T17:40:58.675Z,74.13
2022-11-04T17:43:46.510Z,74.05
2022-11-04T17:46:35.703Z,74.12
2022-11-04T17:49:15.866Z,74.24
2022-11-04T17:51:47.817Z,74.36
2022-11-04T17:54:18.197Z,74.62
2022-11-04T17:56:47.371Z,74.97
2022-11-04T17:59:17.642Z,75.21
2022-11-04T18:01:47.288Z,75.29
2022-11-04T18:04:20.280Z,75.33
2022-11-04T18:06:51.493Z,75.82
2022-11-04T18:09:21.033Z,75.79
2022-11-04T18:12:09.154Z,76.05
2022-11-04T18:14:38.338Z,75.91
2022-11-04T18:17:07.623Z,76.25
2022-11-04T18:19:37.084Z,76.33
2022-11-04T18:22:06.377Z,76.08
2022-11-04T18:24:35.857Z,76.31
2022-11-04T18:27:05.312Z,76.45
2022-11-04T18:29:35.786Z,76.41
2022-11-04T18:32:05.066Z,76.53
2022-11-04T18:34:34.845Z,76.64
2022-11-04T18:37:04.727Z,76.68
2022-11-04T18:39:34.514Z,76.67
2022-11-04T18:42:03.651Z,76.82
2022-11-04T18:44:32.783Z,76.79
2022-11-04T18:47:02.549Z,77.02
2022-11-04T18:49:31.964Z,76.70
2022-11-04T18:52:01.273Z,76.68
2022-11-04T18:54:30.681Z,76.40
2022-11-04T18:56:59.797Z,76.68
2022-11-04T18:59:28.857Z,76.84
2022-11-04T19:01:58.375Z,76.77
2022-11-04T19:04:27.643Z,76.56
2022-11-04T19:06:57.949Z,76.40
2022-11-04T19:12:36.535Z,76.07
2022-11-04T19:15:06.012Z,75.50
2022-11-04T19:17:39.820Z,75.57
2022-11-04T19:20:12.503Z,75.19
2022-11-04T19:22:42.579Z,75.02
2022-11-04T19:25:12.933Z,74.93
2022-11-04T19:27:43.098Z,74.55
2022-11-04T19:30:12.925Z,74.27
2022-11-04T19:32:41.964Z,74.16
2022-11-04T19:35:11.314Z,73.98
2022-11-04T19:37:40.615Z,74.02
2022-11-04T19:40:12.005Z,73.81
2022-11-04T19:43:00.307Z,73.94
2022-11-04T19:45:31.718Z,73.90
2022-11-04T19:48:01.014Z,73.77
2022-11-04T19:50:30.195Z,73.78
2022-11-04T19:52:59.125Z,73.99
2022-11-04T19:55:29.070Z,73.75
2022-11-04T19:57:58.046Z,73.95
2022-11-04T20:00:27.555Z,73.95
2022-11-04T20:02:57.086Z,73.87
2022-11-04T20:05:27.130Z,73.94
2022-11-04T20:07:57.602Z,74.06
2022-11-04T20:10:30.180Z,73.93
2022-11-04T20:13:17.765Z,74.22
2022-11-04T20:15:47.272Z,73.99
2022-11-04T20:18:16.305Z,73.95
2022-11-04T20:20:46.273Z,74.01
2022-11-04T20:23:15.607Z,74.33
2022-11-04T20:25:44.846Z,74.56
2022-11-04T20:28:14.180Z,74.80
2022-11-04T20:30:43.763Z,74.77
2022-11-04T20:33:12.903Z,74.55
2022-11-04T20:35:42.165Z,74.37
2022-11-04T20:38:11.815Z,74.14
2022-11-04T20:40:41.242Z,74.68
2022-11-04T20:43:10.577Z,74.69
2022-11-04T20:45:40.671Z,74.84
2022-11-04T20:48:10.439Z,74.90
2022-11-04T20:50:39.683Z,75.15
2022-11-04T20:53:08.860Z,75.08
2022-11-04T20:55:41.650Z,75.80
2022-11-04T20:58:11.002Z,75.56
2022-11-04T21:00:40.339Z,75.75
2022-11-04T21:03:09.458Z,75.67
2022-11-04T21:05:38.559Z,75.46
2022-11-04T21:08:07.751Z,75.79
2022-11-04T21:10:38.415Z,75.66
2022-11-04T21:13:07.506Z,75.67
2022-11-04T21:15:42.181Z,76.09
2022-11-04T21:18:13.802Z,76.35
2022-11-04T21:20:44.152Z,76.59
2022-11-04T21:23:15.328Z,76.41
2022-11-04T21:25:58.388Z,76.40
2022-11-04T21:28:28.012Z,76.41
2022-11-04T21:31:02.794Z,76.40
2022-11-04T21:33:31.928Z,76.30
2022-11-04T21:36:08.391Z,76.49
2022-11-04T21:38:37.598Z,76.44
2022-11-04T21:41:11.086Z,76.45
2022-11-04T21:43:40.316Z,76.72
2022-11-04T21:46:14.860Z,76.75
2022-11-04T21:48:44.519Z,76.72
2022-11-04T21:51:16.532Z,76.53
2022-11-04T21:53:46.622Z,76.15
2022-11-04T21:56:22.009Z,76.31
2022-11-04T21:58:53.616Z,76.38
2022-11-04T22:01:25.971Z,76.21
2022-11-04T22:03:57.755Z,76.38
2022-11-04T22:06:33.601Z,76.53
2022-11-04T22:09:06.640Z,76.77
2022-11-04T22:11:40.647Z,76.74
2022-11-04T22:14:10.310Z,76.77
2022-11-04T22:16:40.944Z,76.83
2022-11-04T22:19:14.651Z,76.68
2022-11-04T22:21:46.418Z,76.57
2022-11-04T22:24:18.132Z,76.78
2022-11-04T22:26:48.756Z,76.59
2022-11-04T22:29:18.230Z,76.29
2022-11-04T22:31:47.253Z,76.45
2022-11-04T22:34:16.324Z,76.30
2022-11-04T22:36:45.574Z,76.14
2022-11-04T22:39:17.051Z,76.26
2022-11-04T22:41:47.348Z,76.46
2022-11-04T22:44:16.633Z,76.42
2022-11-04T22:46:45.684Z,76.47
2022-11-04T22:49:15.801Z,76.55
2022-11-04T22:51:45.321Z,76.65
2022-11-04T22:54:14.460Z,76.89
2022-11-04T22:56:43.438Z,76.63
2022-11-04T22:59:13.408Z,76.73
2022-11-04T23:01:43.052Z,77.14
2022-11-04T23:04:13.427Z,77.13
2022-11-04T23:06:42.833Z,76.92
2022-11-04T23:09:14.674Z,77.27
2022-11-04T23:12:02.124Z,77.22
2022-11-04T23:14:46.403Z,77.21
2022-11-04T23:17:43.598Z,77.18
2022-11-04T23:20:16.622Z,77.29
2022-11-04T23:23:04.493Z,77.22
2022-11-04T23:25:33.697Z,77.61
2022-11-04T23:28:21.113Z,77.61
2022-11-04T23:30:53.102Z,77.62
2022-11-04T23:33:42.232Z,77.50
2022-11-04T23:36:30.515Z,77.57
2022-11-04T23:38:59.732Z,77.62
2022-11-04T23:41:47.961Z,77.49
2022-11-04T23:44:37.477Z,77.99
2022-11-04T23:47:24.904Z,78.28
2022-11-04T23:50:12.222Z,78.30
2022-11-04T23:52:59.709Z,78.44
2022-11-04T23:55:47.721Z,78.34
2022-11-04T23:58:35.167Z,78.47
